createdAt,value
2023-01-10T00:01:08.582Z,0.45
2023-01-10T00:04:11.170Z,0.30
2023-01-10T00:07:14.013Z,0.40
2023-01-10T00:10:16.759Z,0.20
2023-01-10T00:13:25.209Z,0.50
2023-01-10T00:16:27.766Z,0.25
2023-01-10T00:19:30.780Z,0.70
2023-01-10T00:22:33.431Z,0.22
2023-01-10T00:25:36.813Z,0.10
2023-01-10T00:28:39.612Z,0.65
2023-01-10T00:31:42.148Z,0.20
2023-01-10T00:34:44.686Z,0.10
2023-01-10T00:37:47.191Z,0.30
2023-01-10T00:40:49.803Z,0.60
2023-01-10T00:43:58.213Z,0.30
2023-01-10T00:47:00.689Z,0.10
2023-01-10T00:50:05.907Z,0.20
2023-01-10T00:53:08.507Z,0.28
2023-01-10T00:56:11.021Z,0.70
2023-01-10T00:59:13.577Z,0.25
2023-01-10T01:02:16.205Z,0.32
2023-01-10T01:05:19.226Z,0.43
2023-01-10T01:08:21.793Z,0.30
2023-01-10T01:11:24.854Z,0.20
2023-01-10T01:14:27.354Z,0.60
2023-01-10T01:17:29.859Z,0.40
2023-01-10T01:20:33.664Z,0.20
2023-01-10T01:23:36.427Z,0.30
2023-01-10T01:26:39.927Z,0.50
2023-01-10T01:29:43.624Z,0.30
2023-01-10T01:32:46.626Z,0.30
2023-01-10T01:35:50.375Z,0.47
2023-01-10T01:38:52.892Z,0.40
2023-01-10T01:41:57.871Z,0.32
2023-01-10T01:45:09.102Z,0.47
2023-01-10T01:48:17.751Z,0.47
2023-01-10T01:51:25.477Z,0.20
2023-01-10T01:54:28.338Z,0.20
2023-01-10T01:57:32.304Z,0.30
2023-01-10T02:00:35.606Z,0.50
2023-01-10T02:03:38.470Z,0.45
2023-01-10T02:06:41.192Z,0.50
2023-01-10T02:09:52.632Z,0.32
2023-01-10T02:12:56.950Z,0.47
2023-01-10T02:16:01.163Z,0.22
2023-01-10T02:19:06.963Z,0.32
2023-01-10T02:22:31.289Z,0.30
2023-01-10T02:25:48.961Z,0.40
2023-01-10T02:32:43.849Z,0.22
2023-01-10T02:36:25.849Z,0.30
2023-01-10T02:39:39.915Z,0.20
2023-01-10T02:42:45.429Z,0.30
2023-01-10T02:46:09.021Z,0.40
2023-01-10T02:49:11.546Z,0.25
2023-01-10T02:52:16.324Z,0.60
2023-01-10T02:55:18.906Z,0.57
2023-01-10T02:58:32.156Z,0.28
2023-01-10T03:01:52.873Z,0.38
2023-01-10T03:04:58.508Z,0.20
2023-01-10T03:08:08.061Z,0.50
2023-01-10T03:11:11.480Z,0.20
2023-01-10T03:14:23.584Z,0.25
2023-01-10T03:17:27.217Z,0.20
2023-01-10T03:20:32.713Z,0.32
2023-01-10T03:23:35.633Z,0.20
2023-01-10T03:26:49.615Z,0.30
2023-01-10T03:29:58.641Z,0.30
2023-01-10T03:33:01.361Z,0.20
2023-01-10T03:36:31.431Z,0.25
2023-01-10T03:39:59.284Z,0.10
2023-01-10T03:43:40.343Z,0.20
2023-01-10T03:46:47.664Z,0.10
2023-01-10T03:49:54.628Z,0.13
2023-01-10T03:52:57.523Z,0.17
2023-01-10T03:56:00.417Z,0.13
2023-01-10T03:59:02.896Z,0.13
2023-01-10T04:02:05.511Z,0.10
2023-01-10T04:05:08.648Z,0.28
2023-01-10T04:08:11.128Z,0.20
2023-01-10T04:11:13.625Z,0.20
2023-01-10T04:14:16.098Z,0.10
2023-01-10T04:17:18.890Z,0.10
2023-01-10T04:20:21.432Z,0.30
2023-01-10T04:23:23.970Z,0.10
2023-01-10T04:26:26.531Z,0.20
2023-01-10T04:29:28.994Z,0.30
2023-01-10T04:32:31.471Z,0.10
2023-01-10T04:35:33.945Z,0.30
2023-01-10T04:38:36.636Z,0.15
2023-01-10T04:41:39.266Z,0.20
2023-01-10T04:44:41.770Z,0.17
2023-01-10T04:47:44.269Z,0.25
2023-01-10T04:50:51.301Z,0.10
2023-01-10T04:53:54.584Z,0.20
2023-01-10T04:56:57.119Z,0.22
2023-01-10T04:59:59.615Z,0.10
2023-01-10T05:03:02.225Z,0.40
2023-01-10T05:06:06.158Z,0.17
2023-01-10T05:09:09.454Z,0.20
2023-01-10T05:12:11.928Z,0.20
2023-01-10T05:15:14.715Z,0.50
2023-01-10T05:18:17.357Z,0.43
2023-01-10T05:21:19.917Z,0.10
2023-01-10T05:24:22.705Z,0.13
2023-01-10T05:27:25.208Z,0.10
2023-01-10T05:30:27.855Z,0.20
2023-01-10T05:33:30.437Z,0.10
2023-01-10T05:36:33.204Z,0.20
2023-01-10T05:39:35.785Z,0.10
2023-01-10T05:42:38.373Z,0.20
2023-01-10T05:45:40.931Z,0.30
2023-01-10T05:48:43.539Z,0.32
2023-01-10T05:51:46.197Z,0.28
2023-01-10T05:54:48.758Z,0.32
2023-01-10T05:57:51.345Z,0.30
2023-01-10T06:00:55.888Z,0.30
2023-01-10T06:03:58.637Z,0.20
2023-01-10T06:07:01.253Z,0.10
2023-01-10T06:10:03.976Z,0.10
2023-01-10T06:13:06.700Z,0.17
2023-01-10T06:16:09.312Z,0.20
2023-01-10T06:19:12.092Z,0.10
2023-01-10T06:22:14.645Z,0.20
2023-01-10T06:25:17.661Z,0.20
2023-01-10T06:28:20.206Z,0.10
2023-01-10T06:31:22.896Z,0.30
2023-01-10T06:34:25.539Z,0.17
2023-01-10T06:37:28.045Z,0.30
2023-01-10T06:40:31.123Z,0.30
2023-01-10T06:43:33.647Z,0.22
2023-01-10T06:46:36.250Z,0.10
2023-01-10T06:49:38.824Z,0.10
2023-01-10T06:52:42.145Z,0.43
2023-01-10T06:55:44.986Z,0.10
2023-01-10T06:58:49.242Z,0.20
2023-01-10T07:01:51.950Z,0.30
2023-01-10T07:04:54.541Z,0.15
2023-01-10T07:07:59.009Z,0.10
2023-01-10T07:11:01.644Z,0.20
2023-01-10T07:14:04.320Z,0.20
2023-01-10T07:17:06.887Z,0.25
2023-01-10T07:20:10.323Z,0.25
2023-01-10T07:23:12.917Z,0.13
2023-01-10T07:26:18.051Z,0.25
2023-01-10T07:29:20.616Z,0.10
2023-01-10T07:32:23.224Z,0.55
2023-01-10T07:35:26.198Z,0.30
2023-01-10T07:38:29.289Z,0.40
2023-01-10T07:41:32.033Z,0.30
2023-01-10T07:44:34.555Z,0.20
2023-01-10T07:47:37.108Z,0.20
2023-01-10T07:50:39.863Z,0.28
2023-01-10T07:53:42.465Z,0.20
2023-01-10T07:56:47.524Z,0.30
2023-01-10T07:59:50.046Z,0.20
2023-01-10T08:02:56.766Z,0.22
2023-01-10T08:06:00.435Z,0.10
2023-01-10T08:09:05.389Z,0.38
2023-01-10T08:12:08.080Z,0.20
2023-01-10T08:15:11.105Z,0.30
2023-01-10T08:18:13.770Z,0.20
2023-01-10T08:21:16.390Z,0.40
2023-01-10T08:24:18.971Z,0.40
2023-01-10T08:27:21.593Z,0.10
2023-01-10T08:30:24.377Z,0.30
2023-01-10T08:33:27.813Z,0.30
2023-01-10T08:36:30.364Z,0.20
2023-01-10T08:39:33.222Z,0.30
2023-01-10T08:42:36.284Z,0.20
2023-01-10T08:45:39.303Z,0.20
2023-01-10T08:48:41.875Z,0.20
2023-01-10T08:51:44.931Z,0.30
2023-01-10T08:54:47.611Z,0.28
2023-01-10T08:57:50.241Z,0.38
2023-01-10T09:00:53.003Z,0.30
2023-01-10T09:03:55.662Z,0.45
2023-01-10T09:06:58.325Z,0.30
2023-01-10T09:10:01.014Z,0.43
2023-01-10T09:13:05.132Z,0.60
2023-01-10T09:16:08.075Z,0.68
2023-01-10T09:19:10.688Z,0.50
2023-01-10T09:22:13.250Z,0.20
2023-01-10T09:25:15.898Z,0.40
2023-01-10T09:28:18.766Z,0.40
2023-01-10T09:31:21.459Z,0.20
2023-01-10T09:34:25.210Z,0.28
2023-01-10T09:37:27.877Z,0.50
2023-01-10T09:40:55.397Z,0.30
2023-01-10T09:47:27.026Z,0.20
2023-01-10T09:50:41.871Z,0.30
2023-01-10T09:53:45.528Z,0.40
2023-01-10T09:56:48.285Z,0.80
2023-01-10T09:59:54.152Z,0.20
2023-01-10T10:02:58.116Z,0.45
2023-01-10T10:06:11.709Z,0.38
2023-01-10T10:09:17.623Z,0.63
2023-01-10T10:12:35.449Z,0.45
2023-01-10T10:19:04.527Z,0.68
2023-01-10T10:22:15.896Z,0.20
2023-01-10T10:25:37.329Z,0.90
2023-01-10T10:29:37.894Z,0.20
2023-01-10T10:32:40.917Z,0.40
2023-01-10T10:35:47.921Z,0.40
2023-01-10T10:38:52.087Z,0.93
2023-01-10T10:41:55.579Z,0.40
2023-01-10T10:45:21.343Z,0.20
2023-01-10T10:48:31.876Z,0.30
2023-01-10T10:51:48.067Z,0.20
2023-01-10T10:54:51.844Z,0.32
2023-01-10T10:58:00.460Z,0.40
2023-01-10T11:01:03.646Z,0.20
2023-01-10T11:04:09.375Z,0.30
2023-01-10T11:07:16.924Z,0.20
2023-01-10T11:10:35.948Z,0.20
2023-01-10T11:13:49.707Z,0.10
2023-01-10T11:16:52.464Z,0.10
2023-01-10T11:19:58.032Z,0.40
2023-01-10T11:23:00.566Z,0.20
2023-01-10T11:26:29.801Z,0.10
2023-01-10T11:29:42.903Z,0.10
2023-01-10T11:33:00.739Z,0.20
2023-01-10T11:39:07.441Z,0.15
2023-01-10T11:42:39.328Z,0.20
2023-01-10T11:45:42.869Z,0.20
2023-01-10T11:49:05.695Z,0.20
2023-01-10T11:52:30.161Z,0.10
2023-01-10T11:55:35.155Z,0.10
2023-01-10T11:58:38.633Z,0.43
2023-01-10T12:02:05.292Z,0.30
2023-01-10T12:05:11.248Z,0.60
2023-01-10T12:08:25.225Z,0.10
2023-01-10T12:11:33.144Z,0.13
2023-01-10T12:14:36.200Z,0.22
2023-01-10T12:17:38.829Z,0.15
2023-01-10T12:20:52.363Z,0.20
2023-01-10T12:23:59.020Z,0.20
2023-01-10T12:27:06.144Z,0.30
2023-01-10T12:30:34.236Z,0.20
2023-01-10T12:33:40.754Z,0.13
2023-01-10T12:37:09.680Z,0.40
2023-01-10T12:40:36.536Z,0.30
2023-01-10T12:44:00.676Z,0.30
2023-01-10T12:47:24.746Z,0.30
2023-01-10T12:50:32.765Z,0.22
2023-01-10T12:53:49.136Z,0.40
2023-01-10T12:56:52.891Z,0.40
2023-01-10T12:59:55.825Z,0.20
2023-01-10T13:03:01.075Z,0.28
2023-01-10T13:06:06.534Z,0.30
2023-01-10T13:09:17.427Z,0.30
2023-01-10T13:12:37.929Z,0.10
2023-01-10T13:16:19.155Z,0.25
2023-01-10T13:19:28.397Z,0.30
2023-01-10T13:22:35.262Z,0.22
2023-01-10T13:25:39.784Z,0.30
2023-01-10T13:28:54.128Z,0.50
2023-01-10T13:32:12.963Z,0.40
2023-01-10T13:35:18.662Z,0.22
2023-01-10T13:38:27.502Z,0.35
2023-01-10T13:42:16.892Z,0.28
2023-01-10T13:45:23.969Z,0.50
2023-01-10T13:48:28.495Z,0.47
2023-01-10T13:51:32.270Z,0.47
2023-01-10T13:54:35.644Z,0.40
2023-01-10T13:57:52.972Z,0.95
2023-01-10T14:01:17.716Z,0.32
2023-01-10T14:04:24.887Z,0.40
2023-01-10T14:10:32.738Z,0.50
2023-01-10T14:13:35.844Z,1.17
2023-01-10T14:19:44.321Z,0.63
2023-01-10T14:23:21.788Z,0.52
2023-01-10T14:26:36.950Z,0.50
2023-01-10T14:29:40.044Z,0.75
2023-01-10T14:32:44.177Z,0.70
2023-01-10T14:35:53.895Z,0.90
2023-01-10T14:39:00.060Z,1.00
2023-01-10T14:42:06.489Z,0.40
2023-01-10T14:45:28.938Z,0.60
2023-01-10T14:48:41.347Z,0.77
2023-01-10T14:51:44.268Z,0.80
2023-01-10T14:54:48.147Z,0.70
2023-01-10T14:57:56.197Z,0.65
2023-01-10T15:00:59.326Z,0.55
2023-01-10T15:04:03.179Z,1.00
2023-01-10T15:07:15.923Z,1.80
2023-01-10T15:10:40.203Z,0.65
2023-01-10T15:13:53.104Z,0.70
2023-01-10T15:17:00.386Z,1.20
2023-01-10T15:23:05.964Z,0.88
2023-01-10T15:26:16.452Z,0.82
2023-01-10T15:29:23.955Z,1.30
2023-01-10T15:32:32.903Z,1.08
2023-01-10T15:35:37.157Z,1.05
2023-01-10T15:38:44.645Z,1.38
2023-01-10T15:41:47.677Z,1.02
2023-01-10T15:44:56.978Z,0.73
2023-01-10T15:48:05.761Z,0.77
2023-01-10T15:51:22.514Z,0.60
2023-01-10T15:54:25.352Z,1.23
2023-01-10T15:57:30.780Z,1.38
2023-01-10T16:00:34.399Z,1.33
2023-01-10T16:03:39.789Z,1.08
2023-01-10T16:06:43.015Z,1.13
2023-01-10T16:09:59.380Z,1.45
2023-01-10T16:13:28.997Z,0.98
2023-01-10T16:16:32.739Z,1.20
2023-01-10T16:19:35.878Z,1.50
2023-01-10T16:22:39.661Z,1.50
2023-01-10T16:25:47.336Z,1.10
2023-01-10T16:28:50.376Z,1.25
2023-01-10T16:31:53.964Z,1.42
2023-01-10T16:34:57.117Z,1.15
2023-01-10T16:38:01.423Z,0.95
2023-01-10T16:41:23.378Z,1.48
2023-01-10T16:44:26.078Z,1.80
2023-01-10T16:47:28.908Z,1.38
2023-01-10T16:50:31.913Z,2.10
2023-01-10T16:53:35.051Z,1.00
2023-01-10T16:56:38.301Z,1.00
2023-01-10T16:59:41.489Z,1.65
2023-01-10T17:02:47.030Z,3.40
2023-01-10T17:05:50.136Z,1.17
2023-01-10T17:08:52.988Z,1.65
2023-01-10T17:12:04.243Z,2.78
2023-01-10T17:15:08.902Z,6.10
2023-01-10T17:18:12.176Z,1.50
2023-01-10T17:21:18.430Z,1.60
2023-01-10T17:24:21.211Z,1.20
2023-01-10T17:27:24.391Z,1.20
2023-01-10T17:30:27.201Z,0.90
2023-01-10T17:33:30.065Z,0.85
2023-01-10T17:36:38.839Z,1.40
2023-01-10T17:39:41.697Z,1.17
2023-01-10T17:42:45.615Z,1.20
2023-01-10T17:45:50.412Z,1.02
2023-01-10T17:48:53.254Z,0.88
2023-01-10T17:51:59.025Z,1.70
2023-01-10T17:55:03.770Z,1.08
2023-01-10T17:58:06.525Z,1.17
2023-01-10T18:01:18.061Z,1.13
2023-01-10T18:04:21.490Z,1.08
2023-01-10T18:07:25.227Z,1.05
2023-01-10T18:10:29.909Z,1.20
2023-01-10T18:13:33.625Z,1.58
2023-01-10T18:16:36.760Z,1.00
2023-01-10T18:19:39.667Z,1.25
2023-01-10T18:23:05.422Z,0.90
2023-01-10T18:26:17.799Z,0.52
2023-01-10T18:29:21.558Z,0.80
2023-01-10T18:32:24.604Z,0.60
2023-01-10T18:35:28.629Z,0.90
2023-01-10T18:38:32.948Z,0.80
2023-01-10T18:41:35.776Z,1.02
2023-01-10T18:44:39.007Z,0.60
2023-01-10T18:47:42.244Z,0.65
2023-01-10T18:50:50.790Z,1.52
2023-01-10T18:53:54.536Z,0.50
2023-01-10T18:56:58.045Z,0.60
2023-01-10T19:00:01.509Z,0.50
2023-01-10T19:03:07.188Z,0.50
2023-01-10T19:06:12.036Z,0.90
2023-01-10T19:09:15.363Z,0.80
2023-01-10T19:12:19.683Z,0.70
2023-01-10T19:15:23.210Z,0.70
2023-01-10T19:18:26.057Z,0.80
2023-01-10T19:21:30.882Z,0.50
2023-01-10T19:24:38.339Z,0.65
2023-01-10T19:27:42.199Z,0.65
2023-01-10T19:31:03.767Z,0.82
2023-01-10T19:34:08.162Z,0.75
2023-01-10T19:37:11.188Z,0.82
2023-01-10T19:40:14.708Z,3.78
2023-01-10T19:43:19.098Z,0.80
2023-01-10T19:46:21.877Z,0.90
2023-01-10T19:49:25.300Z,0.90
2023-01-10T19:52:28.599Z,1.05
2023-01-10T19:55:32.940Z,1.90
2023-01-10T19:58:36.320Z,0.90
2023-01-10T20:01:39.079Z,1.40
2023-01-10T20:04:41.663Z,0.98
2023-01-10T20:07:44.824Z,1.73
2023-01-10T20:10:47.803Z,0.60
2023-01-10T20:13:51.583Z,1.35
2023-01-10T20:16:54.396Z,1.33
2023-01-10T20:19:58.298Z,1.10
2023-01-10T20:23:01.913Z,0.93
2023-01-10T20:26:07.507Z,0.73
2023-01-10T20:29:10.698Z,0.60
2023-01-10T20:32:23.283Z,0.90
2023-01-10T20:35:26.209Z,1.63
2023-01-10T20:38:30.215Z,0.60
2023-01-10T20:41:33.694Z,1.02
2023-01-10T20:44:36.688Z,1.00
2023-01-10T20:47:39.519Z,1.20
2023-01-10T20:50:43.878Z,0.55
2023-01-10T20:53:47.995Z,2.47
2023-01-10T20:56:50.881Z,1.40
2023-01-10T20:59:54.452Z,0.77
2023-01-10T21:02:57.164Z,0.70
2023-01-10T21:06:00.794Z,0.68
2023-01-10T21:09:04.189Z,0.80
2023-01-10T21:12:22.131Z,0.73
2023-01-10T21:15:25.921Z,1.63
2023-01-10T21:18:44.257Z,0.80
2023-01-10T21:21:47.889Z,0.70
2023-01-10T21:24:52.593Z,0.50
2023-01-10T21:27:55.965Z,0.85
2023-01-10T21:30:58.669Z,0.43
2023-01-10T21:34:01.919Z,1.05
2023-01-10T21:37:04.800Z,0.45
2023-01-10T21:40:08.576Z,0.68
2023-01-10T21:43:11.792Z,1.10
2023-01-10T21:46:14.577Z,0.77
2023-01-10T21:49:17.495Z,1.77
2023-01-10T21:52:20.744Z,0.50
2023-01-10T21:55:23.751Z,1.05
2023-01-10T21:58:26.907Z,0.65
2023-01-10T22:01:30.046Z,0.90
2023-01-10T22:04:32.716Z,0.80
2023-01-10T22:07:35.419Z,1.20
2023-01-10T22:10:38.124Z,1.63
2023-01-10T22:13:40.863Z,1.50
2023-01-10T22:16:44.078Z,1.38
2023-01-10T22:19:46.936Z,1.38
2023-01-10T22:22:49.624Z,1.50
2023-01-10T22:26:06.580Z,0.60
2023-01-10T22:29:09.296Z,1.58
2023-01-10T22:32:12.610Z,0.73
2023-01-10T22:35:15.492Z,1.05
2023-01-10T22:38:18.824Z,1.27
2023-01-10T22:41:27.128Z,0.95
2023-01-10T22:44:30.713Z,1.30
2023-01-10T22:47:33.532Z,1.33
2023-01-10T22:50:36.376Z,0.88
2023-01-10T22:53:39.491Z,1.13
2023-01-10T22:56:46.593Z,1.00
2023-01-10T23:03:07.748Z,0.90
2023-01-10T23:06:10.580Z,1.30
2023-01-10T23:09:13.311Z,0.82
2023-01-10T23:12:15.920Z,1.50
2023-01-10T23:15:18.744Z,1.45
2023-01-10T23:18:21.596Z,1.50
2023-01-10T23:21:25.718Z,0.90
2023-01-10T23:24:29.230Z,0.98
2023-01-10T23:27:32.098Z,1.20
2023-01-10T23:30:34.653Z,0.90
2023-01-10T23:33:38.073Z,1.35
2023-01-10T23:36:41.012Z,1.05
2023-01-10T23:39:43.883Z,1.10
2023-01-10T23:42:46.726Z,0.90
2023-01-10T23:45:49.572Z,1.55
2023-01-10T23:48:52.510Z,0.88
2023-01-10T23:51:55.373Z,0.60
2023-01-10T23:54:58.073Z,0.85
2023-01-10T23:58:01.119Z,0.47
